sensor_id;sensor_type;location;lat;lon;timestamp;temperature;humidity
22418;DHT22;11376;50.932;4.442;2022-08-21T00:02:23;18.90;99.90
22418;DHT22;11376;50.932;4.442;2022-08-21T00:04:49;18.70;99.90
22418;DHT22;11376;50.932;4.442;2022-08-21T00:07:16;18.80;99.90
22418;DHT22;11376;50.932;4.442;2022-08-21T00:09:42;18.70;99.90
22418;DHT22;11376;50.932;4.442;2022-08-21T00:12:07;18.70;99.90
22418;DHT22;11376;50.932;4.442;2022-08-21T00:14:34;18.70;99.90
22418;DHT22;11376;50.932;4.442;2022-08-21T00:17:01;18.80;99.90
22418;DHT22;11376;50.932;4.442;2022-08-21T00:19:27;18.70;99.90
22418;DHT22;11376;50.932;4.442;2022-08-21T00:21:54;18.70;99.90
22418;DHT22;11376;50.932;4.442;2022-08-21T00:24:21;18.60;99.90
22418;DHT22;11376;50.932;4.442;2022-08-21T00:26:47;18.50;99.90
22418;DHT22;11376;50.932;4.442;2022-08-21T00:29:14;18.50;99.90
22418;DHT22;11376;50.932;4.442;2022-08-21T00:31:41;18.50;99.90
22418;DHT22;11376;50.932;4.442;2022-08-21T00:34:07;18.50;99.90
22418;DHT22;11376;50.932;4.442;2022-08-21T00:36:34;18.50;99.90
22418;DHT22;11376;50.932;4.442;2022-08-21T00:39:00;18.50;99.90
22418;DHT22;11376;50.932;4.442;2022-08-21T00:41:26;18.60;99.90
22418;DHT22;11376;50.932;4.442;2022-08-21T00:43:52;18.60;99.90
22418;DHT22;11376;50.932;4.442;2022-08-21T00:46:18;18.60;99.90
22418;DHT22;11376;50.932;4.442;2022-08-21T00:48:44;18.50;99.90
22418;DHT22;11376;50.932;4.442;2022-08-21T00:51:15;18.50;99.90
22418;DHT22;11376;50.932;4.442;2022-08-21T00:53:43;18.40;99.90
22418;DHT22;11376;50.932;4.442;2022-08-21T00:56:11;18.50;99.90
22418;DHT22;11376;50.932;4.442;2022-08-21T00:58:39;18.50;99.90
22418;DHT22;11376;50.932;4.442;2022-08-21T01:01:06;18.50;99.90
22418;DHT22;11376;50.932;4.442;2022-08-21T01:03:33;18.60;99.90
22418;DHT22;11376;50.932;4.442;2022-08-21T01:05:58;18.50;99.90
22418;DHT22;11376;50.932;4.442;2022-08-21T01:08:25;18.50;99.90
22418;DHT22;11376;50.932;4.442;2022-08-21T01:10:52;18.40;99.90
22418;DHT22;11376;50.932;4.442;2022-08-21T01:13:19;18.40;99.90
22418;DHT22;11376;50.932;4.442;2022-08-21T01:15:48;18.30;99.90
22418;DHT22;11376;50.932;4.442;2022-08-21T01:18:15;18.30;99.90
22418;DHT22;11376;50.932;4.442;2022-08-21T01:23:24;18.30;99.90
22418;DHT22;11376;50.932;4.442;2022-08-21T01:25:50;18.30;99.90
22418;DHT22;11376;50.932;4.442;2022-08-21T01:28:16;18.30;99.90
22418;DHT22;11376;50.932;4.442;2022-08-21T01:30:43;18.30;99.90
22418;DHT22;11376;50.932;4.442;2022-08-21T01:33:09;18.30;99.90
22418;DHT22;11376;50.932;4.442;2022-08-21T01:35:34;18.30;99.90
22418;DHT22;11376;50.932;4.442;2022-08-21T01:38:00;18.20;99.90
22418;DHT22;11376;50.932;4.442;2022-08-21T01:40:26;18.00;99.90
22418;DHT22;11376;50.932;4.442;2022-08-21T01:42:52;18.00;99.90
22418;DHT22;11376;50.932;4.442;2022-08-21T01:45:18;17.90;99.90
22418;DHT22;11376;50.932;4.442;2022-08-21T01:47:44;17.90;99.90
22418;DHT22;11376;50.932;4.442;2022-08-21T01:50:13;17.80;99.90
22418;DHT22;11376;50.932;4.442;2022-08-21T01:52:39;17.90;99.90
22418;DHT22;11376;50.932;4.442;2022-08-21T01:55:07;17.90;99.90
22418;DHT22;11376;50.932;4.442;2022-08-21T01:57:33;17.90;99.90
22418;DHT22;11376;50.932;4.442;2022-08-21T01:59:58;17.80;99.90
22418;DHT22;11376;50.932;4.442;2022-08-21T02:02:24;17.70;99.90
22418;DHT22;11376;50.932;4.442;2022-08-21T02:04:50;17.60;99.90
22418;DHT22;11376;50.932;4.442;2022-08-21T02:07:15;17.60;99.90
22418;DHT22;11376;50.932;4.442;2022-08-21T02:09:41;17.70;99.90
22418;DHT22;11376;50.932;4.442;2022-08-21T02:12:11;17.70;99.90
22418;DHT22;11376;50.932;4.442;2022-08-21T02:14:36;17.70;99.90
22418;DHT22;11376;50.932;4.442;2022-08-21T02:17:02;17.70;99.90
22418;DHT22;11376;50.932;4.442;2022-08-21T02:19:28;17.70;99.90
22418;DHT22;11376;50.932;4.442;2022-08-21T02:21:54;17.70;99.90
22418;DHT22;11376;50.932;4.442;2022-08-21T02:24:20;17.80;99.90
22418;DHT22;11376;50.932;4.442;2022-08-21T02:26:46;17.70;99.90
22418;DHT22;11376;50.932;4.442;2022-08-21T02:29:12;17.70;99.90
22418;DHT22;11376;50.932;4.442;2022-08-21T02:31:38;17.60;99.90
22418;DHT22;11376;50.932;4.442;2022-08-21T02:34:03;17.60;99.90
22418;DHT22;11376;50.932;4.442;2022-08-21T02:36:29;17.50;99.90
22418;DHT22;11376;50.932;4.442;2022-08-21T02:38:55;17.50;99.90
22418;DHT22;11376;50.932;4.442;2022-08-21T02:41:21;17.60;99.90
22418;DHT22;11376;50.932;4.442;2022-08-21T02:43:48;17.60;99.90
22418;DHT22;11376;50.932;4.442;2022-08-21T02:46:15;17.50;99.90
22418;DHT22;11376;50.932;4.442;2022-08-21T02:48:41;17.50;99.90
22418;DHT22;11376;50.932;4.442;2022-08-21T02:51:13;17.40;99.90
22418;DHT22;11376;50.932;4.442;2022-08-21T02:53:40;17.40;99.90
22418;DHT22;11376;50.932;4.442;2022-08-21T02:56:09;17.50;99.90
22418;DHT22;11376;50.932;4.442;2022-08-21T02:58:38;17.40;99.90
22418;DHT22;11376;50.932;4.442;2022-08-21T03:01:06;17.40;99.90
22418;DHT22;11376;50.932;4.442;2022-08-21T03:03:35;17.50;99.90
22418;DHT22;11376;50.932;4.442;2022-08-21T03:06:00;17.40;99.90
22418;DHT22;11376;50.932;4.442;2022-08-21T03:08:26;17.40;99.90
22418;DHT22;11376;50.932;4.442;2022-08-21T03:10:52;17.40;99.90
22418;DHT22;11376;50.932;4.442;2022-08-21T03:13:19;17.30;99.90
22418;DHT22;11376;50.932;4.442;2022-08-21T03:15:46;17.30;99.90
22418;DHT22;11376;50.932;4.442;2022-08-21T03:18:12;17.30;99.90
22418;DHT22;11376;50.932;4.442;2022-08-21T03:20:39;17.30;99.90
22418;DHT22;11376;50.932;4.442;2022-08-21T03:23:06;17.30;99.90
22418;DHT22;11376;50.932;4.442;2022-08-21T03:25:32;17.30;99.90
22418;DHT22;11376;50.932;4.442;2022-08-21T03:28:00;17.20;99.90
22418;DHT22;11376;50.932;4.442;2022-08-21T03:30:25;17.20;99.90
22418;DHT22;11376;50.932;4.442;2022-08-21T03:32:51;17.20;99.90
22418;DHT22;11376;50.932;4.442;2022-08-21T03:35:18;17.30;99.90
22418;DHT22;11376;50.932;4.442;2022-08-21T03:37:45;17.30;99.90
22418;DHT22;11376;50.932;4.442;2022-08-21T03:40:14;17.30;99.90
22418;DHT22;11376;50.932;4.442;2022-08-21T03:42:40;17.30;99.90
22418;DHT22;11376;50.932;4.442;2022-08-21T03:45:07;17.20;99.90
22418;DHT22;11376;50.932;4.442;2022-08-21T03:47:33;17.20;99.90
22418;DHT22;11376;50.932;4.442;2022-08-21T03:49:59;17.10;99.90
22418;DHT22;11376;50.932;4.442;2022-08-21T03:52:25;17.10;99.90
22418;DHT22;11376;50.932;4.442;2022-08-21T03:54:51;17.00;99.90
22418;DHT22;11376;50.932;4.442;2022-08-21T03:57:17;17.00;99.90
22418;DHT22;11376;50.932;4.442;2022-08-21T03:59:43;17.10;99.90
22418;DHT22;11376;50.932;4.442;2022-08-21T04:02:09;17.00;99.90
22418;DHT22;11376;50.932;4.442;2022-08-21T04:04:35;17.00;99.90
22418;DHT22;11376;50.932;4.442;2022-08-21T04:07:02;17.10;99.90
22418;DHT22;11376;50.932;4.442;2022-08-21T04:09:28;17.10;99.90
22418;DHT22;11376;50.932;4.442;2022-08-21T04:11:55;17.20;99.90
22418;DHT22;11376;50.932;4.442;2022-08-21T04:14:21;17.20;99.90
22418;DHT22;11376;50.932;4.442;2022-08-21T04:16:48;17.20;99.90
22418;DHT22;11376;50.932;4.442;2022-08-21T04:19:14;17.20;99.90
22418;DHT22;11376;50.932;4.442;2022-08-21T04:21:41;17.20;99.90
22418;DHT22;11376;50.932;4.442;2022-08-21T04:24:08;17.20;99.90
22418;DHT22;11376;50.932;4.442;2022-08-21T04:26:36;17.10;99.90
22418;DHT22;11376;50.932;4.442;2022-08-21T04:29:03;17.10;99.90
22418;DHT22;11376;50.932;4.442;2022-08-21T04:31:28;17.10;99.90
22418;DHT22;11376;50.932;4.442;2022-08-21T04:33:54;17.20;99.90
22418;DHT22;11376;50.932;4.442;2022-08-21T04:36:20;17.20;99.90
22418;DHT22;11376;50.932;4.442;2022-08-21T04:38:46;17.10;99.90
22418;DHT22;11376;50.932;4.442;2022-08-21T04:41:12;17.00;99.90
22418;DHT22;11376;50.932;4.442;2022-08-21T04:43:38;17.00;99.90
22418;DHT22;11376;50.932;4.442;2022-08-21T04:46:04;17.00;99.90
22418;DHT22;11376;50.932;4.442;2022-08-21T04:48:30;16.80;99.90
22418;DHT22;11376;50.932;4.442;2022-08-21T04:51:00;16.90;99.90
22418;DHT22;11376;50.932;4.442;2022-08-21T04:53:44;16.90;99.90
22418;DHT22;11376;50.932;4.442;2022-08-21T04:58:51;17.10;99.90
22418;DHT22;11376;50.932;4.442;2022-08-21T05:01:20;17.00;99.90
22418;DHT22;11376;50.932;4.442;2022-08-21T05:03:47;17.00;99.90
22418;DHT22;11376;50.932;4.442;2022-08-21T05:06:15;17.00;99.90
22418;DHT22;11376;50.932;4.442;2022-08-21T05:08:43;17.10;99.90
22418;DHT22;11376;50.932;4.442;2022-08-21T05:11:11;17.10;99.90
22418;DHT22;11376;50.932;4.442;2022-08-21T05:13:36;17.10;99.90
22418;DHT22;11376;50.932;4.442;2022-08-21T05:16:02;17.10;99.90
22418;DHT22;11376;50.932;4.442;2022-08-21T05:18:28;17.10;99.90
22418;DHT22;11376;50.932;4.442;2022-08-21T05:20:53;17.00;99.90
22418;DHT22;11376;50.932;4.442;2022-08-21T05:23:19;16.90;99.90
22418;DHT22;11376;50.932;4.442;2022-08-21T05:25:45;16.90;99.90
22418;DHT22;11376;50.932;4.442;2022-08-21T05:28:10;16.90;99.90
22418;DHT22;11376;50.932;4.442;2022-08-21T05:30:37;17.00;99.90
22418;DHT22;11376;50.932;4.442;2022-08-21T05:33:05;17.00;99.90
22418;DHT22;11376;50.932;4.442;2022-08-21T05:35:31;17.00;99.90
22418;DHT22;11376;50.932;4.442;2022-08-21T05:37:58;17.00;99.90
22418;DHT22;11376;50.932;4.442;2022-08-21T05:40:24;16.90;99.90
22418;DHT22;11376;50.932;4.442;2022-08-21T05:42:51;17.10;99.90
22418;DHT22;11376;50.932;4.442;2022-08-21T05:45:17;17.00;99.90
22418;DHT22;11376;50.932;4.442;2022-08-21T05:47:43;17.10;99.90
22418;DHT22;11376;50.932;4.442;2022-08-21T05:50:09;17.10;99.90
22418;DHT22;11376;50.932;4.442;2022-08-21T05:52:34;17.10;99.90
22418;DHT22;11376;50.932;4.442;2022-08-21T05:55:00;17.20;99.90
22418;DHT22;11376;50.932;4.442;2022-08-21T05:57:26;17.20;99.90
22418;DHT22;11376;50.932;4.442;2022-08-21T05:59:52;17.20;99.90
22418;DHT22;11376;50.932;4.442;2022-08-21T06:02:18;17.20;99.90
22418;DHT22;11376;50.932;4.442;2022-08-21T06:04:44;17.20;99.90
22418;DHT22;11376;50.932;4.442;2022-08-21T06:07:10;17.30;99.90
22418;DHT22;11376;50.932;4.442;2022-08-21T06:09:36;17.40;99.90
22418;DHT22;11376;50.932;4.442;2022-08-21T06:12:08;17.50;99.90
22418;DHT22;11376;50.932;4.442;2022-08-21T06:14:34;17.50;99.90
22418;DHT22;11376;50.932;4.442;2022-08-21T06:17:04;17.50;99.90
22418;DHT22;11376;50.932;4.442;2022-08-21T06:19:30;17.60;99.90
22418;DHT22;11376;50.932;4.442;2022-08-21T06:21:56;17.70;99.90
22418;DHT22;11376;50.932;4.442;2022-08-21T06:24:22;17.70;99.90
22418;DHT22;11376;50.932;4.442;2022-08-21T06:26:47;17.70;99.90
22418;DHT22;11376;50.932;4.442;2022-08-21T06:29:13;17.70;99.90
22418;DHT22;11376;50.932;4.442;2022-08-21T06:31:42;17.80;99.90
22418;DHT22;11376;50.932;4.442;2022-08-21T06:34:08;17.90;99.90
22418;DHT22;11376;50.932;4.442;2022-08-21T06:36:33;18.00;99.90
22418;DHT22;11376;50.932;4.442;2022-08-21T06:38:59;18.20;99.90
22418;DHT22;11376;50.932;4.442;2022-08-21T06:41:25;18.30;99.90
22418;DHT22;11376;50.932;4.442;2022-08-21T06:43:51;18.20;99.90
22418;DHT22;11376;50.932;4.442;2022-08-21T06:46:16;18.30;99.90
22418;DHT22;11376;50.932;4.442;2022-08-21T06:48:42;18.30;99.90
22418;DHT22;11376;50.932;4.442;2022-08-21T06:51:08;18.30;99.90
22418;DHT22;11376;50.932;4.442;2022-08-21T06:53:33;18.60;99.90
22418;DHT22;11376;50.932;4.442;2022-08-21T06:55:59;18.70;99.90
22418;DHT22;11376;50.932;4.442;2022-08-21T06:58:25;18.80;99.90
22418;DHT22;11376;50.932;4.442;2022-08-21T07:00:51;18.90;99.90
22418;DHT22;11376;50.932;4.442;2022-08-21T07:03:38;18.80;99.90
22418;DHT22;11376;50.932;4.442;2022-08-21T07:06:05;18.80;99.90
22418;DHT22;11376;50.932;4.442;2022-08-21T07:08:32;18.90;99.90
22418;DHT22;11376;50.932;4.442;2022-08-21T07:10:59;19.10;99.90
22418;DHT22;11376;50.932;4.442;2022-08-21T07:13:25;19.10;99.90
22418;DHT22;11376;50.932;4.442;2022-08-21T07:15:51;19.10;99.90
22418;DHT22;11376;50.932;4.442;2022-08-21T07:18:17;19.20;99.90
22418;DHT22;11376;50.932;4.442;2022-08-21T07:20:43;19.30;99.90
22418;DHT22;11376;50.932;4.442;2022-08-21T07:23:16;19.50;99.90
22418;DHT22;11376;50.932;4.442;2022-08-21T07:25:46;19.70;99.90
22418;DHT22;11376;50.932;4.442;2022-08-21T07:28:12;19.90;99.90
22418;DHT22;11376;50.932;4.442;2022-08-21T07:30:37;20.00;99.90
22418;DHT22;11376;50.932;4.442;2022-08-21T07:33:03;20.10;99.90
22418;DHT22;11376;50.932;4.442;2022-08-21T07:35:28;20.10;99.90
22418;DHT22;11376;50.932;4.442;2022-08-21T07:37:56;20.30;99.90
22418;DHT22;11376;50.932;4.442;2022-08-21T07:40:22;20.40;99.90
22418;DHT22;11376;50.932;4.442;2022-08-21T07:42:48;20.50;99.90
22418;DHT22;11376;50.932;4.442;2022-08-21T07:45:18;20.40;99.90
22418;DHT22;11376;50.932;4.442;2022-08-21T07:47:44;20.50;99.90
22418;DHT22;11376;50.932;4.442;2022-08-21T07:50:12;20.70;99.90
22418;DHT22;11376;50.932;4.442;2022-08-21T07:52:38;20.70;99.90
22418;DHT22;11376;50.932;4.442;2022-08-21T07:55:04;20.80;99.90
22418;DHT22;11376;50.932;4.442;2022-08-21T07:57:30;20.90;99.90
22418;DHT22;11376;50.932;4.442;2022-08-21T07:59:56;20.90;99.90
22418;DHT22;11376;50.932;4.442;2022-08-21T08:02:26;21.10;99.90
22418;DHT22;11376;50.932;4.442;2022-08-21T08:04:52;21.30;99.90
22418;DHT22;11376;50.932;4.442;2022-08-21T08:07:18;21.30;99.90
22418;DHT22;11376;50.932;4.442;2022-08-21T08:09:45;21.50;99.90
22418;DHT22;11376;50.932;4.442;2022-08-21T08:12:11;21.40;99.90
22418;DHT22;11376;50.932;4.442;2022-08-21T08:14:36;21.40;99.90
22418;DHT22;11376;50.932;4.442;2022-08-21T08:17:02;21.50;99.90
22418;DHT22;11376;50.932;4.442;2022-08-21T08:19:28;21.50;99.90
22418;DHT22;11376;50.932;4.442;2022-08-21T08:21:54;21.50;99.90
22418;DHT22;11376;50.932;4.442;2022-08-21T08:24:20;21.50;99.90
22418;DHT22;11376;50.932;4.442;2022-08-21T08:26:46;21.60;99.90
22418;DHT22;11376;50.932;4.442;2022-08-21T08:29:12;21.60;99.90
22418;DHT22;11376;50.932;4.442;2022-08-21T08:31:38;21.50;99.90
22418;DHT22;11376;50.932;4.442;2022-08-21T08:34:04;21.60;99.90
22418;DHT22;11376;50.932;4.442;2022-08-21T08:36:35;21.80;99.90
22418;DHT22;11376;50.932;4.442;2022-08-21T08:39:03;22.10;99.90
22418;DHT22;11376;50.932;4.442;2022-08-21T08:41:31;22.40;99.90
22418;DHT22;11376;50.932;4.442;2022-08-21T08:44:07;22.40;99.90
22418;DHT22;11376;50.932;4.442;2022-08-21T08:46:44;22.40;99.90
22418;DHT22;11376;50.932;4.442;2022-08-21T08:49:23;22.40;99.90
22418;DHT22;11376;50.932;4.442;2022-08-21T08:52:03;22.50;99.90
22418;DHT22;11376;50.932;4.442;2022-08-21T08:54:44;22.60;99.90
22418;DHT22;11376;50.932;4.442;2022-08-21T08:57:16;22.80;99.90
22418;DHT22;11376;50.932;4.442;2022-08-21T08:59:50;22.60;99.90
22418;DHT22;11376;50.932;4.442;2022-08-21T09:02:18;22.40;99.90
22418;DHT22;11376;50.932;4.442;2022-08-21T09:04:47;22.50;99.90
22418;DHT22;11376;50.932;4.442;2022-08-21T09:10:21;22.80;99.90
22418;DHT22;11376;50.932;4.442;2022-08-21T09:13:01;22.60;99.90
22418;DHT22;11376;50.932;4.442;2022-08-21T09:26:19;22.30;99.90
22418;DHT22;11376;50.932;4.442;2022-08-21T09:28:46;22.60;99.90
22418;DHT22;11376;50.932;4.442;2022-08-21T09:31:32;22.80;99.90
22418;DHT22;11376;50.932;4.442;2022-08-21T09:34:00;23.40;99.90
22418;DHT22;11376;50.932;4.442;2022-08-21T09:36:49;23.90;99.90
22418;DHT22;11376;50.932;4.442;2022-08-21T09:39:32;24.30;99.90
22418;DHT22;11376;50.932;4.442;2022-08-21T09:42:04;24.70;99.90
22418;DHT22;11376;50.932;4.442;2022-08-21T09:44:34;25.00;99.90
22418;DHT22;11376;50.932;4.442;2022-08-21T09:47:04;25.40;99.90
22418;DHT22;11376;50.932;4.442;2022-08-21T09:49:35;25.40;99.90
22418;DHT22;11376;50.932;4.442;2022-08-21T09:52:03;25.40;99.90
22418;DHT22;11376;50.932;4.442;2022-08-21T09:54:35;25.80;99.90
22418;DHT22;11376;50.932;4.442;2022-08-21T09:59:50;25.40;99.90
22418;DHT22;11376;50.932;4.442;2022-08-21T10:02:31;25.30;99.90
22418;DHT22;11376;50.932;4.442;2022-08-21T10:05:07;25.50;99.90
22418;DHT22;11376;50.932;4.442;2022-08-21T10:07:37;25.40;99.90
22418;DHT22;11376;50.932;4.442;2022-08-21T10:10:17;25.00;99.90
22418;DHT22;11376;50.932;4.442;2022-08-21T10:13:04;25.00;99.90
22418;DHT22;11376;50.932;4.442;2022-08-21T10:15:44;24.60;99.90
22418;DHT22;11376;50.932;4.442;2022-08-21T10:18:25;24.30;99.90
22418;DHT22;11376;50.932;4.442;2022-08-21T10:21:02;24.20;99.90
22418;DHT22;11376;50.932;4.442;2022-08-21T10:29:01;25.00;99.90
22418;DHT22;11376;50.932;4.442;2022-08-21T10:31:49;25.10;99.90
22418;DHT22;11376;50.932;4.442;2022-08-21T10:40:26;25.80;99.90
22418;DHT22;11376;50.932;4.442;2022-08-21T10:43:10;25.90;99.90
22418;DHT22;11376;50.932;4.442;2022-08-21T10:48:29;27.00;99.90
22418;DHT22;11376;50.932;4.442;2022-08-21T10:51:10;27.00;99.90
22418;DHT22;11376;50.932;4.442;2022-08-21T10:56:25;27.90;99.90
22418;DHT22;11376;50.932;4.442;2022-08-21T11:01:50;30.50;98.30
22418;DHT22;11376;50.932;4.442;2022-08-21T11:04:31;32.10;94.50
22418;DHT22;11376;50.932;4.442;2022-08-21T11:07:03;34.30;90.30
22418;DHT22;11376;50.932;4.442;2022-08-21T11:09:31;37.00;75.70
22418;DHT22;11376;50.932;4.442;2022-08-21T11:12:03;39.40;63.40
22418;DHT22;11376;50.932;4.442;2022-08-21T11:17:44;40.40;53.00
22418;DHT22;11376;50.932;4.442;2022-08-21T11:20:26;39.70;53.00
22418;DHT22;11376;50.932;4.442;2022-08-21T11:22:54;39.50;52.50
22418;DHT22;11376;50.932;4.442;2022-08-21T11:25:27;39.20;51.50
22418;DHT22;11376;50.932;4.442;2022-08-21T11:28:02;37.00;52.60
22418;DHT22;11376;50.932;4.442;2022-08-21T11:30:39;34.60;56.90
22418;DHT22;11376;50.932;4.442;2022-08-21T11:33:12;34.40;58.60
22418;DHT22;11376;50.932;4.442;2022-08-21T11:35:49;35.80;57.00
22418;DHT22;11376;50.932;4.442;2022-08-21T11:38:35;39.00;52.30
22418;DHT22;11376;50.932;4.442;2022-08-21T11:46:50;44.30;41.00
22418;DHT22;11376;50.932;4.442;2022-08-21T11:52:44;41.40;41.30
22418;DHT22;11376;50.932;4.442;2022-08-21T11:55:18;40.30;42.70
22418;DHT22;11376;50.932;4.442;2022-08-21T11:57:54;39.30;43.80
22418;DHT22;11376;50.932;4.442;2022-08-21T12:02:56;36.90;45.90
22418;DHT22;11376;50.932;4.442;2022-08-21T12:05:33;36.30;47.10
22418;DHT22;11376;50.932;4.442;2022-08-21T12:10:46;36.40;48.80
22418;DHT22;11376;50.932;4.442;2022-08-21T12:13:25;39.10;45.70
22418;DHT22;11376;50.932;4.442;2022-08-21T12:15:51;41.90;41.90
22418;DHT22;11376;50.932;4.442;2022-08-21T12:18:29;44.00;38.50
22418;DHT22;11376;50.932;4.442;2022-08-21T12:24:00;46.80;34.40
22418;DHT22;11376;50.932;4.442;2022-08-21T12:29:12;47.90;32.20
22418;DHT22;11376;50.932;4.442;2022-08-21T12:31:52;45.60;33.40
22418;DHT22;11376;50.932;4.442;2022-08-21T12:34:20;44.30;34.00
22418;DHT22;11376;50.932;4.442;2022-08-21T12:36:56;42.50;35.70
22418;DHT22;11376;50.932;4.442;2022-08-21T12:39:26;42.60;36.10
22418;DHT22;11376;50.932;4.442;2022-08-21T12:42:06;42.40;35.10
22418;DHT22;11376;50.932;4.442;2022-08-21T12:44:40;42.50;35.60
22418;DHT22;11376;50.932;4.442;2022-08-21T12:47:21;43.20;34.50
22418;DHT22;11376;50.932;4.442;2022-08-21T12:50:03;44.40;33.80
22418;DHT22;11376;50.932;4.442;2022-08-21T12:52:35;43.60;33.30
22418;DHT22;11376;50.932;4.442;2022-08-21T12:55:01;43.40;33.80
22418;DHT22;11376;50.932;4.442;2022-08-21T12:57:29;44.10;33.80
22418;DHT22;11376;50.932;4.442;2022-08-21T12:59:55;44.40;33.00
22418;DHT22;11376;50.932;4.442;2022-08-21T13:02:25;43.50;33.30
22418;DHT22;11376;50.932;4.442;2022-08-21T13:04:52;42.00;34.30
22418;DHT22;11376;50.932;4.442;2022-08-21T13:07:28;40.20;36.00
22418;DHT22;11376;50.932;4.442;2022-08-21T13:10:14;38.40;38.00
22418;DHT22;11376;50.932;4.442;2022-08-21T13:12:42;37.10;39.80
22418;DHT22;11376;50.932;4.442;2022-08-21T13:15:08;35.80;41.10
22418;DHT22;11376;50.932;4.442;2022-08-21T13:17:36;34.90;42.10
22418;DHT22;11376;50.932;4.442;2022-08-21T13:20:08;34.20;43.70
22418;DHT22;11376;50.932;4.442;2022-08-21T13:22:41;33.50;45.20
22418;DHT22;11376;50.932;4.442;2022-08-21T13:25:11;33.00;46.20
22418;DHT22;11376;50.932;4.442;2022-08-21T13:27:37;33.20;46.20
22418;DHT22;11376;50.932;4.442;2022-08-21T13:32:39;33.90;45.90
22418;DHT22;11376;50.932;4.442;2022-08-21T13:35:15;33.20;46.70
22418;DHT22;11376;50.932;4.442;2022-08-21T13:37:43;32.50;47.80
22418;DHT22;11376;50.932;4.442;2022-08-21T13:40:14;32.50;48.00
22418;DHT22;11376;50.932;4.442;2022-08-21T13:42:42;32.60;47.80
22418;DHT22;11376;50.932;4.442;2022-08-21T13:45:18;32.80;47.80
22418;DHT22;11376;50.932;4.442;2022-08-21T13:47:45;33.50;47.30
22418;DHT22;11376;50.932;4.442;2022-08-21T13:50:13;34.40;45.60
22418;DHT22;11376;50.932;4.442;2022-08-21T13:52:58;35.30;45.10
22418;DHT22;11376;50.932;4.442;2022-08-21T13:55:25;36.80;42.90
22418;DHT22;11376;50.932;4.442;2022-08-21T13:58:00;37.80;41.30
22418;DHT22;11376;50.932;4.442;2022-08-21T14:00:28;37.30;41.20
22418;DHT22;11376;50.932;4.442;2022-08-21T14:03:02;37.10;41.80
22418;DHT22;11376;50.932;4.442;2022-08-21T14:05:30;37.60;40.90
22418;DHT22;11376;50.932;4.442;2022-08-21T14:10:27;37.70;40.50
22418;DHT22;11376;50.932;4.442;2022-08-21T14:13:02;37.00;41.00
22418;DHT22;11376;50.932;4.442;2022-08-21T14:15:31;36.70;41.50
22418;DHT22;11376;50.932;4.442;2022-08-21T14:18:17;36.70;40.80
22418;DHT22;11376;50.932;4.442;2022-08-21T14:20:44;37.00;41.00
22418;DHT22;11376;50.932;4.442;2022-08-21T14:23:10;36.80;40.80
22418;DHT22;11376;50.932;4.442;2022-08-21T14:28:23;35.70;41.50
22418;DHT22;11376;50.932;4.442;2022-08-21T14:30:51;35.30;41.50
22418;DHT22;11376;50.932;4.442;2022-08-21T14:33:31;34.70;42.70
22418;DHT22;11376;50.932;4.442;2022-08-21T14:35:57;33.70;44.20
22418;DHT22;11376;50.932;4.442;2022-08-21T14:38:24;32.70;45.90
22418;DHT22;11376;50.932;4.442;2022-08-21T14:40:54;31.60;47.40
22418;DHT22;11376;50.932;4.442;2022-08-21T14:43:20;31.10;48.80
22418;DHT22;11376;50.932;4.442;2022-08-21T14:45:47;30.60;49.50
22418;DHT22;11376;50.932;4.442;2022-08-21T14:48:13;30.10;50.60
22418;DHT22;11376;50.932;4.442;2022-08-21T14:50:39;29.80;51.40
22418;DHT22;11376;50.932;4.442;2022-08-21T14:53:05;29.50;52.20
22418;DHT22;11376;50.932;4.442;2022-08-21T14:55:32;29.10;52.70
22418;DHT22;11376;50.932;4.442;2022-08-21T14:58:21;28.90;53.10
22418;DHT22;11376;50.932;4.442;2022-08-21T15:00:49;28.80;53.50
22418;DHT22;11376;50.932;4.442;2022-08-21T15:03:15;28.80;53.90
22418;DHT22;11376;50.932;4.442;2022-08-21T15:05:41;28.90;54.10
22418;DHT22;11376;50.932;4.442;2022-08-21T15:08:06;29.00;54.00
22418;DHT22;11376;50.932;4.442;2022-08-21T15:10:33;29.20;54.10
22418;DHT22;11376;50.932;4.442;2022-08-21T15:12:59;29.10;53.90
22418;DHT22;11376;50.932;4.442;2022-08-21T15:15:25;29.00;54.50
22418;DHT22;11376;50.932;4.442;2022-08-21T15:17:51;28.90;55.20
22418;DHT22;11376;50.932;4.442;2022-08-21T15:20:16;28.80;55.30
22418;DHT22;11376;50.932;4.442;2022-08-21T15:22:42;28.70;55.70
22418;DHT22;11376;50.932;4.442;2022-08-21T15:25:08;28.60;55.50
22418;DHT22;11376;50.932;4.442;2022-08-21T15:27:34;28.90;54.20
22418;DHT22;11376;50.932;4.442;2022-08-21T15:30:02;28.90;53.90
22418;DHT22;11376;50.932;4.442;2022-08-21T15:32:28;28.80;54.30
22418;DHT22;11376;50.932;4.442;2022-08-21T15:34:56;28.60;54.60
22418;DHT22;11376;50.932;4.442;2022-08-21T15:37:23;28.60;54.40
22418;DHT22;11376;50.932;4.442;2022-08-21T15:39:49;28.60;54.30
22418;DHT22;11376;50.932;4.442;2022-08-21T15:42:16;28.60;54.80
22418;DHT22;11376;50.932;4.442;2022-08-21T15:44:42;28.40;55.10
22418;DHT22;11376;50.932;4.442;2022-08-21T15:47:17;28.00;55.90
22418;DHT22;11376;50.932;4.442;2022-08-21T15:49:43;27.70;57.20
22418;DHT22;11376;50.932;4.442;2022-08-21T15:52:19;27.50;58.50
22418;DHT22;11376;50.932;4.442;2022-08-21T15:54:46;27.50;59.00
22418;DHT22;11376;50.932;4.442;2022-08-21T15:57:18;27.10;60.00
22418;DHT22;11376;50.932;4.442;2022-08-21T15:59:49;27.10;60.00
22418;DHT22;11376;50.932;4.442;2022-08-21T16:02:20;27.10;60.00
22418;DHT22;11376;50.932;4.442;2022-08-21T16:04:46;27.20;59.90
22418;DHT22;11376;50.932;4.442;2022-08-21T16:07:12;27.30;60.00
22418;DHT22;11376;50.932;4.442;2022-08-21T16:09:38;27.40;59.60
22418;DHT22;11376;50.932;4.442;2022-08-21T16:12:05;27.50;59.50
22418;DHT22;11376;50.932;4.442;2022-08-21T16:14:31;27.50;60.00
22418;DHT22;11376;50.932;4.442;2022-08-21T16:16:57;27.20;61.20
22418;DHT22;11376;50.932;4.442;2022-08-21T16:19:23;27.10;61.60
22418;DHT22;11376;50.932;4.442;2022-08-21T16:21:50;26.70;62.90
22418;DHT22;11376;50.932;4.442;2022-08-21T16:24:16;26.80;62.70
22418;DHT22;11376;50.932;4.442;2022-08-21T16:26:42;26.90;62.30
22418;DHT22;11376;50.932;4.442;2022-08-21T16:29:07;26.90;62.10
22418;DHT22;11376;50.932;4.442;2022-08-21T16:31:34;26.90;62.40
22418;DHT22;11376;50.932;4.442;2022-08-21T16:33:59;26.80;62.40
22418;DHT22;11376;50.932;4.442;2022-08-21T16:36:26;26.80;63.00
22418;DHT22;11376;50.932;4.442;2022-08-21T16:38:53;26.80;63.50
22418;DHT22;11376;50.932;4.442;2022-08-21T16:41:20;26.70;63.90
22418;DHT22;11376;50.932;4.442;2022-08-21T16:43:49;26.70;64.20
22418;DHT22;11376;50.932;4.442;2022-08-21T16:46:16;26.70;64.20
22418;DHT22;11376;50.932;4.442;2022-08-21T16:48:43;26.60;64.30
22418;DHT22;11376;50.932;4.442;2022-08-21T16:51:13;26.60;64.90
22418;DHT22;11376;50.932;4.442;2022-08-21T16:53:39;26.50;65.00